sensor_id;sensor_type;location;lat;lon;timestamp;P1;durP1;ratioP1;P2;durP2;ratioP2
30380;SDS011;17169;50.966;11.038;2023-07-13T00:00:54;3.30;;;0.70;;
30380;SDS011;17169;50.966;11.038;2023-07-13T00:03:56;3.25;;;1.05;;
30380;SDS011;17169;50.966;11.038;2023-07-13T00:06:59;2.90;;;1.08;;
30380;SDS011;17169;50.966;11.038;2023-07-13T00:10:03;7.25;;;1.05;;
30380;SDS011;17169;50.966;11.038;2023-07-13T00:16:10;3.15;;;1.20;;
30380;SDS011;17169;50.966;11.038;2023-07-13T00:19:14;3.58;;;1.00;;
30380;SDS011;17169;50.966;11.038;2023-07-13T00:22:16;2.22;;;0.90;;
30380;SDS011;17169;50.966;11.038;2023-07-13T00:25:20;2.90;;;1.10;;
30380;SDS011;17169;50.966;11.038;2023-07-13T00:28:24;6.40;;;1.30;;
30380;SDS011;17169;50.966;11.038;2023-07-13T00:31:27;4.95;;;1.55;;
30380;SDS011;17169;50.966;11.038;2023-07-13T00:34:29;3.60;;;1.17;;
30380;SDS011;17169;50.966;11.038;2023-07-13T00:37:31;2.17;;;1.02;;
30380;SDS011;17169;50.966;11.038;2023-07-13T00:40:37;2.60;;;0.90;;
30380;SDS011;17169;50.966;11.038;2023-07-13T00:43:39;3.22;;;1.10;;
30380;SDS011;17169;50.966;11.038;2023-07-13T00:46:42;4.50;;;0.90;;
30380;SDS011;17169;50.966;11.038;2023-07-13T00:49:44;4.65;;;1.15;;
30380;SDS011;17169;50.966;11.038;2023-07-13T00:52:49;6.50;;;1.35;;
30380;SDS011;17169;50.966;11.038;2023-07-13T00:55:56;5.22;;;1.23;;
30380;SDS011;17169;50.966;11.038;2023-07-13T00:58:59;2.85;;;1.00;;
30380;SDS011;17169;50.966;11.038;2023-07-13T01:02:03;4.57;;;1.95;;
30380;SDS011;17169;50.966;11.038;2023-07-13T01:05:08;2.55;;;1.00;;
30380;SDS011;17169;50.966;11.038;2023-07-13T01:11:14;4.13;;;0.93;;
30380;SDS011;17169;50.966;11.038;2023-07-13T01:14:20;4.35;;;1.40;;
30380;SDS011;17169;50.966;11.038;2023-07-13T01:17:23;2.20;;;0.90;;
30380;SDS011;17169;50.966;11.038;2023-07-13T01:20:25;2.72;;;1.25;;
30380;SDS011;17169;50.966;11.038;2023-07-13T01:23:29;7.30;;;1.17;;
30380;SDS011;17169;50.966;11.038;2023-07-13T01:29:36;3.53;;;1.20;;
30380;SDS011;17169;50.966;11.038;2023-07-13T01:32:42;3.78;;;1.27;;
30380;SDS011;17169;50.966;11.038;2023-07-13T01:35:45;6.15;;;1.20;;
30380;SDS011;17169;50.966;11.038;2023-07-13T01:38:49;5.68;;;1.13;;
30380;SDS011;17169;50.966;11.038;2023-07-13T01:41:52;3.88;;;1.30;;
30380;SDS011;17169;50.966;11.038;2023-07-13T01:44:54;4.97;;;1.48;;
30380;SDS011;17169;50.966;11.038;2023-07-13T01:47:56;2.83;;;1.20;;
30380;SDS011;17169;50.966;11.038;2023-07-13T01:50:59;7.90;;;1.17;;
30380;SDS011;17169;50.966;11.038;2023-07-13T01:54:03;7.07;;;1.00;;
30380;SDS011;17169;50.966;11.038;2023-07-13T01:57:05;6.65;;;1.20;;
30380;SDS011;17169;50.966;11.038;2023-07-13T02:00:08;2.78;;;1.10;;
30380;SDS011;17169;50.966;11.038;2023-07-13T02:07:01;4.55;;;2.13;;
30380;SDS011;17169;50.966;11.038;2023-07-13T02:10:05;5.20;;;1.25;;
30380;SDS011;17169;50.966;11.038;2023-07-13T02:16:11;5.93;;;1.25;;
30380;SDS011;17169;50.966;11.038;2023-07-13T02:19:13;3.60;;;1.30;;
30380;SDS011;17169;50.966;11.038;2023-07-13T02:22:15;10.23;;;1.08;;
30380;SDS011;17169;50.966;11.038;2023-07-13T02:25:19;2.55;;;1.05;;
30380;SDS011;17169;50.966;11.038;2023-07-13T02:28:21;3.78;;;1.13;;
30380;SDS011;17169;50.966;11.038;2023-07-13T02:31:24;3.92;;;1.40;;
30380;SDS011;17169;50.966;11.038;2023-07-13T02:34:26;2.85;;;0.90;;
30380;SDS011;17169;50.966;11.038;2023-07-13T02:37:28;3.80;;;1.30;;
30380;SDS011;17169;50.966;11.038;2023-07-13T02:40:32;5.97;;;1.35;;
30380;SDS011;17169;50.966;11.038;2023-07-13T02:43:38;3.33;;;1.20;;
30380;SDS011;17169;50.966;11.038;2023-07-13T02:46:40;3.50;;;1.10;;
30380;SDS011;17169;50.966;11.038;2023-07-13T02:49:42;3.83;;;1.15;;
30380;SDS011;17169;50.966;11.038;2023-07-13T02:52:45;12.20;;;1.58;;
30380;SDS011;17169;50.966;11.038;2023-07-13T02:55:48;4.55;;;1.55;;
30380;SDS011;17169;50.966;11.038;2023-07-13T02:58:51;3.35;;;1.50;;
30380;SDS011;17169;50.966;11.038;2023-07-13T03:01:54;3.10;;;1.35;;
30380;SDS011;17169;50.966;11.038;2023-07-13T03:04:59;3.78;;;1.20;;
30380;SDS011;17169;50.966;11.038;2023-07-13T03:08:02;3.50;;;1.23;;
30380;SDS011;17169;50.966;11.038;2023-07-13T03:11:06;3.47;;;1.30;;
30380;SDS011;17169;50.966;11.038;2023-07-13T03:14:12;3.13;;;1.27;;
30380;SDS011;17169;50.966;11.038;2023-07-13T03:17:14;2.70;;;1.20;;
30380;SDS011;17169;50.966;11.038;2023-07-13T03:20:16;11.50;;;1.50;;
30380;SDS011;17169;50.966;11.038;2023-07-13T03:23:19;3.35;;;1.30;;
30380;SDS011;17169;50.966;11.038;2023-07-13T03:26:24;5.13;;;1.50;;
30380;SDS011;17169;50.966;11.038;2023-07-13T03:29:27;4.25;;;1.38;;
30380;SDS011;17169;50.966;11.038;2023-07-13T03:32:29;5.45;;;1.30;;
30380;SDS011;17169;50.966;11.038;2023-07-13T03:35:31;4.32;;;1.35;;
30380;SDS011;17169;50.966;11.038;2023-07-13T03:38:34;4.13;;;1.38;;
30380;SDS011;17169;50.966;11.038;2023-07-13T03:41:38;6.03;;;1.48;;
30380;SDS011;17169;50.966;11.038;2023-07-13T03:44:40;5.45;;;1.65;;
30380;SDS011;17169;50.966;11.038;2023-07-13T03:47:46;6.15;;;1.55;;
30380;SDS011;17169;50.966;11.038;2023-07-13T03:50:48;2.58;;;1.13;;
30380;SDS011;17169;50.966;11.038;2023-07-13T03:53:51;3.35;;;1.30;;
30380;SDS011;17169;50.966;11.038;2023-07-13T03:56:54;3.55;;;1.23;;
30380;SDS011;17169;50.966;11.038;2023-07-13T03:59:57;4.13;;;1.38;;
30380;SDS011;17169;50.966;11.038;2023-07-13T04:02:59;4.95;;;1.58;;
30380;SDS011;17169;50.966;11.038;2023-07-13T04:06:03;5.18;;;1.65;;
30380;SDS011;17169;50.966;11.038;2023-07-13T04:09:06;4.23;;;1.67;;
30380;SDS011;17169;50.966;11.038;2023-07-13T04:12:11;4.22;;;1.50;;
30380;SDS011;17169;50.966;11.038;2023-07-13T04:15:13;6.82;;;1.40;;
30380;SDS011;17169;50.966;11.038;2023-07-13T04:18:16;4.38;;;2.00;;
30380;SDS011;17169;50.966;11.038;2023-07-13T04:21:20;5.10;;;1.73;;
30380;SDS011;17169;50.966;11.038;2023-07-13T04:24:23;3.03;;;1.67;;
30380;SDS011;17169;50.966;11.038;2023-07-13T04:27:27;2.80;;;1.20;;
30380;SDS011;17169;50.966;11.038;2023-07-13T04:30:29;3.53;;;1.35;;
30380;SDS011;17169;50.966;11.038;2023-07-13T04:33:31;4.45;;;1.30;;
30380;SDS011;17169;50.966;11.038;2023-07-13T04:36:34;4.85;;;1.75;;
30380;SDS011;17169;50.966;11.038;2023-07-13T04:39:38;7.13;;;1.90;;
30380;SDS011;17169;50.966;11.038;2023-07-13T04:42:41;8.82;;;1.75;;
30380;SDS011;17169;50.966;11.038;2023-07-13T04:45:44;6.82;;;1.67;;
30380;SDS011;17169;50.966;11.038;2023-07-13T04:48:46;6.60;;;1.70;;
30380;SDS011;17169;50.966;11.038;2023-07-13T04:51:51;7.65;;;1.80;;
30380;SDS011;17169;50.966;11.038;2023-07-13T04:54:55;8.40;;;1.63;;
30380;SDS011;17169;50.966;11.038;2023-07-13T04:57:59;4.57;;;1.70;;
30380;SDS011;17169;50.966;11.038;2023-07-13T05:01:01;8.73;;;1.50;;
30380;SDS011;17169;50.966;11.038;2023-07-13T05:04:05;5.88;;;1.67;;
30380;SDS011;17169;50.966;11.038;2023-07-13T05:07:07;5.60;;;1.65;;
30380;SDS011;17169;50.966;11.038;2023-07-13T05:10:10;6.25;;;1.85;;
30380;SDS011;17169;50.966;11.038;2023-07-13T05:13:14;5.15;;;1.50;;
30380;SDS011;17169;50.966;11.038;2023-07-13T05:16:16;4.53;;;1.35;;
30380;SDS011;17169;50.966;11.038;2023-07-13T05:19:19;9.20;;;1.77;;
30380;SDS011;17169;50.966;11.038;2023-07-13T05:22:22;4.18;;;1.40;;
30380;SDS011;17169;50.966;11.038;2023-07-13T05:25:24;4.78;;;1.60;;
30380;SDS011;17169;50.966;11.038;2023-07-13T05:28:28;4.43;;;2.00;;
30380;SDS011;17169;50.966;11.038;2023-07-13T05:31:32;4.78;;;1.90;;
30380;SDS011;17169;50.966;11.038;2023-07-13T05:34:34;7.47;;;1.60;;
30380;SDS011;17169;50.966;11.038;2023-07-13T05:37:37;6.80;;;1.48;;
30380;SDS011;17169;50.966;11.038;2023-07-13T05:40:39;4.25;;;1.42;;
30380;SDS011;17169;50.966;11.038;2023-07-13T05:43:46;7.28;;;1.35;;
30380;SDS011;17169;50.966;11.038;2023-07-13T05:46:48;7.22;;;1.80;;
30380;SDS011;17169;50.966;11.038;2023-07-13T05:49:50;5.38;;;1.70;;
30380;SDS011;17169;50.966;11.038;2023-07-13T05:52:53;2.78;;;1.50;;
30380;SDS011;17169;50.966;11.038;2023-07-13T05:55:55;4.70;;;1.63;;
30380;SDS011;17169;50.966;11.038;2023-07-13T05:58:59;5.32;;;1.30;;
30380;SDS011;17169;50.966;11.038;2023-07-13T06:02:01;7.38;;;2.72;;
30380;SDS011;17169;50.966;11.038;2023-07-13T06:05:04;4.03;;;1.83;;
30380;SDS011;17169;50.966;11.038;2023-07-13T06:08:07;7.88;;;1.50;;
30380;SDS011;17169;50.966;11.038;2023-07-13T06:11:11;3.80;;;1.42;;
30380;SDS011;17169;50.966;11.038;2023-07-13T06:14:17;6.50;;;1.40;;
30380;SDS011;17169;50.966;11.038;2023-07-13T06:17:19;8.38;;;1.67;;
30380;SDS011;17169;50.966;11.038;2023-07-13T06:20:21;4.18;;;1.63;;
30380;SDS011;17169;50.966;11.038;2023-07-13T06:23:24;7.43;;;1.73;;
30380;SDS011;17169;50.966;11.038;2023-07-13T06:26:27;5.78;;;1.48;;
30380;SDS011;17169;50.966;11.038;2023-07-13T06:29:31;6.70;;;1.50;;
30380;SDS011;17169;50.966;11.038;2023-07-13T06:32:33;3.42;;;1.48;;
30380;SDS011;17169;50.966;11.038;2023-07-13T06:35:36;7.00;;;1.20;;
30380;SDS011;17169;50.966;11.038;2023-07-13T06:38:38;6.20;;;1.40;;
30380;SDS011;17169;50.966;11.038;2023-07-13T06:41:40;6.22;;;1.40;;
30380;SDS011;17169;50.966;11.038;2023-07-13T06:44:44;7.72;;;2.00;;
30380;SDS011;17169;50.966;11.038;2023-07-13T06:47:46;5.63;;;2.00;;
30380;SDS011;17169;50.966;11.038;2023-07-13T06:50:50;9.55;;;2.00;;
30380;SDS011;17169;50.966;11.038;2023-07-13T06:53:53;8.73;;;1.83;;
30380;SDS011;17169;50.966;11.038;2023-07-13T06:56:56;9.43;;;2.00;;
30380;SDS011;17169;50.966;11.038;2023-07-13T07:00:00;4.60;;;1.60;;
30380;SDS011;17169;50.966;11.038;2023-07-13T07:03:02;7.53;;;1.80;;
30380;SDS011;17169;50.966;11.038;2023-07-13T07:06:08;8.05;;;2.50;;
30380;SDS011;17169;50.966;11.038;2023-07-13T07:09:15;6.28;;;1.50;;
30380;SDS011;17169;50.966;11.038;2023-07-13T07:12:18;4.10;;;1.30;;
30380;SDS011;17169;50.966;11.038;2023-07-13T07:15:22;4.07;;;1.27;;
30380;SDS011;17169;50.966;11.038;2023-07-13T07:18:24;5.13;;;1.42;;
30380;SDS011;17169;50.966;11.038;2023-07-13T07:21:26;4.70;;;1.45;;
30380;SDS011;17169;50.966;11.038;2023-07-13T07:24:29;12.73;;;1.83;;
30380;SDS011;17169;50.966;11.038;2023-07-13T07:27:32;6.90;;;1.48;;
30380;SDS011;17169;50.966;11.038;2023-07-13T07:30:35;7.55;;;1.98;;
30380;SDS011;17169;50.966;11.038;2023-07-13T07:33:38;4.30;;;1.50;;
30380;SDS011;17169;50.966;11.038;2023-07-13T07:36:41;7.50;;;1.65;;
30380;SDS011;17169;50.966;11.038;2023-07-13T07:39:43;6.43;;;1.67;;
30380;SDS011;17169;50.966;11.038;2023-07-13T07:42:45;5.30;;;2.00;;
30380;SDS011;17169;50.966;11.038;2023-07-13T07:45:49;6.13;;;2.22;;
30380;SDS011;17169;50.966;11.038;2023-07-13T07:48:51;5.47;;;1.67;;
30380;SDS011;17169;50.966;11.038;2023-07-13T07:51:54;6.18;;;1.58;;
30380;SDS011;17169;50.966;11.038;2023-07-13T07:54:56;4.03;;;1.48;;
30380;SDS011;17169;50.966;11.038;2023-07-13T07:57:58;8.35;;;1.60;;
30380;SDS011;17169;50.966;11.038;2023-07-13T08:01:03;5.65;;;1.73;;
30380;SDS011;17169;50.966;11.038;2023-07-13T08:04:06;5.82;;;1.60;;
30380;SDS011;17169;50.966;11.038;2023-07-13T08:07:09;8.43;;;2.53;;
30380;SDS011;17169;50.966;11.038;2023-07-13T08:10:12;8.27;;;1.42;;
30380;SDS011;17169;50.966;11.038;2023-07-13T08:13:14;4.97;;;1.42;;
30380;SDS011;17169;50.966;11.038;2023-07-13T08:16:18;4.70;;;1.33;;
30380;SDS011;17169;50.966;11.038;2023-07-13T08:19:20;4.80;;;1.33;;
30380;SDS011;17169;50.966;11.038;2023-07-13T08:22:23;7.32;;;1.65;;
30380;SDS011;17169;50.966;11.038;2023-07-13T08:25:25;4.97;;;1.30;;
30380;SDS011;17169;50.966;11.038;2023-07-13T08:28:27;5.28;;;1.35;;
30380;SDS011;17169;50.966;11.038;2023-07-13T08:31:32;5.35;;;1.30;;
30380;SDS011;17169;50.966;11.038;2023-07-13T08:34:35;8.05;;;1.40;;
30380;SDS011;17169;50.966;11.038;2023-07-13T08:37:37;4.00;;;1.30;;
30380;SDS011;17169;50.966;11.038;2023-07-13T08:40:39;4.43;;;1.30;;
30380;SDS011;17169;50.966;11.038;2023-07-13T08:43:43;6.30;;;1.35;;
30380;SDS011;17169;50.966;11.038;2023-07-13T08:46:50;4.05;;;1.20;;
30380;SDS011;17169;50.966;11.038;2023-07-13T08:49:56;5.90;;;1.20;;
30380;SDS011;17169;50.966;11.038;2023-07-13T08:52:59;6.20;;;1.20;;
30380;SDS011;17169;50.966;11.038;2023-07-13T08:56:04;1.77;;;0.90;;
30380;SDS011;17169;50.966;11.038;2023-07-13T08:59:13;3.17;;;1.05;;
30380;SDS011;17169;50.966;11.038;2023-07-13T09:02:23;3.63;;;1.13;;
30380;SDS011;17169;50.966;11.038;2023-07-13T09:05:29;3.63;;;1.40;;
30380;SDS011;17169;50.966;11.038;2023-07-13T09:08:38;3.40;;;1.10;;
30380;SDS011;17169;50.966;11.038;2023-07-13T09:11:54;7.97;;;1.17;;
30380;SDS011;17169;50.966;11.038;2023-07-13T09:15:03;2.58;;;0.80;;
30380;SDS011;17169;50.966;11.038;2023-07-13T09:18:18;4.93;;;2.03;;
30380;SDS011;17169;50.966;11.038;2023-07-13T09:21:25;6.85;;;1.45;;
30380;SDS011;17169;50.966;11.038;2023-07-13T09:24:35;2.85;;;0.90;;
30380;SDS011;17169;50.966;11.038;2023-07-13T09:27:39;4.07;;;0.70;;
30380;SDS011;17169;50.966;11.038;2023-07-13T09:30:46;5.55;;;1.02;;
30380;SDS011;17169;50.966;11.038;2023-07-13T09:33:56;2.22;;;0.80;;
30380;SDS011;17169;50.966;11.038;2023-07-13T09:36:58;2.72;;;1.33;;
30380;SDS011;17169;50.966;11.038;2023-07-13T09:40:01;4.50;;;0.90;;
30380;SDS011;17169;50.966;11.038;2023-07-13T09:43:06;4.70;;;0.90;;
30380;SDS011;17169;50.966;11.038;2023-07-13T09:46:19;3.33;;;0.70;;
30380;SDS011;17169;50.966;11.038;2023-07-13T09:49:25;4.60;;;0.80;;
30380;SDS011;17169;50.966;11.038;2023-07-13T09:52:38;3.10;;;0.90;;
30380;SDS011;17169;50.966;11.038;2023-07-13T09:55:43;1.50;;;0.80;;
30380;SDS011;17169;50.966;11.038;2023-07-13T10:01:50;1.73;;;0.60;;
30380;SDS011;17169;50.966;11.038;2023-07-13T10:04:57;4.10;;;0.75;;
30380;SDS011;17169;50.966;11.038;2023-07-13T10:08:01;3.20;;;0.82;;
30380;SDS011;17169;50.966;11.038;2023-07-13T10:11:09;1.15;;;0.47;;
30380;SDS011;17169;50.966;11.038;2023-07-13T10:14:14;1.98;;;0.70;;
30380;SDS011;17169;50.966;11.038;2023-07-13T10:17:18;4.43;;;1.00;;
30380;SDS011;17169;50.966;11.038;2023-07-13T10:20:28;2.92;;;0.80;;
30380;SDS011;17169;50.966;11.038;2023-07-13T10:23:32;6.13;;;1.05;;
30380;SDS011;17169;50.966;11.038;2023-07-13T10:26:36;5.15;;;0.90;;
30380;SDS011;17169;50.966;11.038;2023-07-13T10:29:44;6.70;;;0.90;;
30380;SDS011;17169;50.966;11.038;2023-07-13T10:32:50;2.42;;;0.80;;
30380;SDS011;17169;50.966;11.038;2023-07-13T10:36:11;4.23;;;0.83;;
30380;SDS011;17169;50.966;11.038;2023-07-13T10:39:19;2.40;;;0.57;;
30380;SDS011;17169;50.966;11.038;2023-07-13T10:42:25;3.75;;;1.15;;
30380;SDS011;17169;50.966;11.038;2023-07-13T10:45:33;3.58;;;0.90;;
30380;SDS011;17169;50.966;11.038;2023-07-13T10:48:37;5.78;;;0.80;;
30380;SDS011;17169;50.966;11.038;2023-07-13T10:51:43;2.80;;;0.87;;
30380;SDS011;17169;50.966;11.038;2023-07-13T10:54:46;5.22;;;0.90;;
30380;SDS011;17169;50.966;11.038;2023-07-13T10:57:49;2.15;;;0.90;;
30380;SDS011;17169;50.966;11.038;2023-07-13T11:01:03;3.55;;;0.82;;
30380;SDS011;17169;50.966;11.038;2023-07-13T11:04:11;2.38;;;0.60;;
30380;SDS011;17169;50.966;11.038;2023-07-13T11:07:20;1.33;;;0.55;;
30380;SDS011;17169;50.966;11.038;2023-07-13T11:13:57;2.50;;;1.23;;
30380;SDS011;17169;50.966;11.038;2023-07-13T11:20:37;1.90;;;0.80;;
30380;SDS011;17169;50.966;11.038;2023-07-13T11:23:43;2.35;;;0.82;;
30380;SDS011;17169;50.966;11.038;2023-07-13T11:26:52;4.75;;;1.00;;
30380;SDS011;17169;50.966;11.038;2023-07-13T11:30:06;1.67;;;0.70;;
30380;SDS011;17169;50.966;11.038;2023-07-13T11:33:22;3.55;;;1.05;;
30380;SDS011;17169;50.966;11.038;2023-07-13T11:36:31;2.95;;;0.80;;
30380;SDS011;17169;50.966;11.038;2023-07-13T11:39:42;3.28;;;0.75;;
30380;SDS011;17169;50.966;11.038;2023-07-13T11:42:47;2.00;;;0.82;;
30380;SDS011;17169;50.966;11.038;2023-07-13T11:45:50;4.45;;;0.80;;
30380;SDS011;17169;50.966;11.038;2023-07-13T11:48:53;1.98;;;0.70;;
30380;SDS011;17169;50.966;11.038;2023-07-13T11:51:56;1.75;;;0.70;;
30380;SDS011;17169;50.966;11.038;2023-07-13T11:55:01;2.30;;;0.98;;
30380;SDS011;17169;50.966;11.038;2023-07-13T11:58:07;2.05;;;0.77;;
30380;SDS011;17169;50.966;11.038;2023-07-13T12:01:15;3.45;;;1.15;;
30380;SDS011;17169;50.966;11.038;2023-07-13T12:04:22;6.75;;;0.95;;
30380;SDS011;17169;50.966;11.038;2023-07-13T12:07:28;2.40;;;1.08;;
30380;SDS011;17169;50.966;11.038;2023-07-13T12:10:33;5.20;;;0.77;;
30380;SDS011;17169;50.966;11.038;2023-07-13T12:13:36;6.07;;;0.82;;
30380;SDS011;17169;50.966;11.038;2023-07-13T12:16:40;6.72;;;0.98;;
30380;SDS011;17169;50.966;11.038;2023-07-13T12:19:42;3.17;;;0.82;;
30380;SDS011;17169;50.966;11.038;2023-07-13T12:22:46;3.78;;;1.00;;
30380;SDS011;17169;50.966;11.038;2023-07-13T12:25:50;6.45;;;0.88;;
30380;SDS011;17169;50.966;11.038;2023-07-13T12:28:53;3.43;;;1.10;;
30380;SDS011;17169;50.966;11.038;2023-07-13T12:31:57;6.83;;;1.00;;
30380;SDS011;17169;50.966;11.038;2023-07-13T12:35:01;2.42;;;0.90;;
30380;SDS011;17169;50.966;11.038;2023-07-13T12:38:15;3.17;;;0.80;;
30380;SDS011;17169;50.966;11.038;2023-07-13T12:41:20;5.55;;;0.80;;
30380;SDS011;17169;50.966;11.038;2023-07-13T12:44:25;2.15;;;0.70;;
30380;SDS011;17169;50.966;11.038;2023-07-13T12:47:29;3.42;;;0.90;;
30380;SDS011;17169;50.966;11.038;2023-07-13T12:50:34;2.60;;;0.80;;
30380;SDS011;17169;50.966;11.038;2023-07-13T12:53:42;2.47;;;0.90;;
30380;SDS011;17169;50.966;11.038;2023-07-13T12:56:50;2.03;;;0.75;;
30380;SDS011;17169;50.966;11.038;2023-07-13T12:59:55;3.30;;;0.63;;
30380;SDS011;17169;50.966;11.038;2023-07-13T13:02:58;6.20;;;0.80;;
30380;SDS011;17169;50.966;11.038;2023-07-13T13:06:05;2.63;;;0.95;;
30380;SDS011;17169;50.966;11.038;2023-07-13T13:09:20;2.50;;;0.90;;
30380;SDS011;17169;50.966;11.038;2023-07-13T13:12:23;2.35;;;0.90;;
30380;SDS011;17169;50.966;11.038;2023-07-13T13:15:27;2.95;;;1.13;;
30380;SDS011;17169;50.966;11.038;2023-07-13T13:18:30;4.32;;;1.10;;
30380;SDS011;17169;50.966;11.038;2023-07-13T13:21:33;5.18;;;0.80;;
30380;SDS011;17169;50.966;11.038;2023-07-13T13:24:35;3.88;;;1.25;;
30380;SDS011;17169;50.966;11.038;2023-07-13T13:27:39;1.67;;;0.57;;
30380;SDS011;17169;50.966;11.038;2023-07-13T13:30:43;3.88;;;1.10;;
30380;SDS011;17169;50.966;11.038;2023-07-13T13:33:46;5.00;;;0.75;;
30380;SDS011;17169;50.966;11.038;2023-07-13T13:36:49;2.13;;;0.60;;
30380;SDS011;17169;50.966;11.038;2023-07-13T13:39:52;2.60;;;0.63;;
30380;SDS011;17169;50.966;11.038;2023-07-13T13:42:57;2.40;;;0.70;;
30380;SDS011;17169;50.966;11.038;2023-07-13T13:45:59;1.67;;;0.65;;
30380;SDS011;17169;50.966;11.038;2023-07-13T13:49:02;1.85;;;0.68;;
30380;SDS011;17169;50.966;11.038;2023-07-13T13:52:04;3.28;;;1.98;;
30380;SDS011;17169;50.966;11.038;2023-07-13T13:55:11;1.45;;;0.80;;
30380;SDS011;17169;50.966;11.038;2023-07-13T13:58:16;5.77;;;1.00;;
30380;SDS011;17169;50.966;11.038;2023-07-13T14:01:19;1.90;;;0.80;;
30380;SDS011;17169;50.966;11.038;2023-07-13T14:04:22;8.93;;;0.82;;
30380;SDS011;17169;50.966;11.038;2023-07-13T14:07:25;1.42;;;0.68;;
30380;SDS011;17169;50.966;11.038;2023-07-13T14:10:27;1.80;;;0.68;;
30380;SDS011;17169;50.966;11.038;2023-07-13T14:13:32;3.40;;;0.75;;
30380;SDS011;17169;50.966;11.038;2023-07-13T14:16:40;1.88;;;0.60;;
30380;SDS011;17169;50.966;11.038;2023-07-13T14:19:43;1.63;;;0.65;;
30380;SDS011;17169;50.966;11.038;2023-07-13T14:22:46;3.92;;;1.10;;
30380;SDS011;17169;50.966;11.038;2023-07-13T14:25:49;1.60;;;0.90;;
30380;SDS011;17169;50.966;11.038;2023-07-13T14:28:54;3.60;;;0.95;;
30380;SDS011;17169;50.966;11.038;2023-07-13T14:31:58;3.20;;;1.20;;
30380;SDS011;17169;50.966;11.038;2023-07-13T14:35:01;2.92;;;0.88;;
30380;SDS011;17169;50.966;11.038;2023-07-13T14:38:04;5.07;;;0.80;;
30380;SDS011;17169;50.966;11.038;2023-07-13T14:41:07;3.15;;;0.80;;
30380;SDS011;17169;50.966;11.038;2023-07-13T14:44:12;6.63;;;0.90;;
30380;SDS011;17169;50.966;11.038;2023-07-13T14:47:15;1.83;;;0.90;;
30380;SDS011;17169;50.966;11.038;2023-07-13T14:50:18;5.25;;;0.82;;
30380;SDS011;17169;50.966;11.038;2023-07-13T14:53:22;5.13;;;0.88;;
30380;SDS011;17169;50.966;11.038;2023-07-13T14:56:27;2.20;;;0.85;;
30380;SDS011;17169;50.966;11.038;2023-07-13T14:59:31;2.05;;;0.80;;
30380;SDS011;17169;50.966;11.038;2023-07-13T15:02:34;3.75;;;0.73;;
30380;SDS011;17169;50.966;11.038;2023-07-13T15:05:39;3.45;;;0.90;;
30380;SDS011;17169;50.966;11.038;2023-07-13T15:08:41;1.85;;;0.75;;
30380;SDS011;17169;50.966;11.038;2023-07-13T15:11:44;4.82;;;1.08;;
30380;SDS011;17169;50.966;11.038;2023-07-13T15:14:48;1.20;;;0.80;;
30380;SDS011;17169;50.966;11.038;2023-07-13T15:20:52;8.77;;;1.35;;
30380;SDS011;17169;50.966;11.038;2023-07-13T15:23:56;2.33;;;0.85;;
30380;SDS011;17169;50.966;11.038;2023-07-13T15:26:58;3.35;;;0.85;;
30380;SDS011;17169;50.966;11.038;2023-07-13T15:30:02;2.78;;;0.95;;
30380;SDS011;17169;50.966;11.038;2023-07-13T15:33:09;1.63;;;0.90;;
30380;SDS011;17169;50.966;11.038;2023-07-13T15:36:14;3.83;;;1.10;;
30380;SDS011;17169;50.966;11.038;2023-07-13T15:39:17;2.90;;;1.15;;
30380;SDS011;17169;50.966;11.038;2023-07-13T15:42:20;6.18;;;1.15;;
30380;SDS011;17169;50.966;11.038;2023-07-13T15:45:26;2.05;;;0.90;;
30380;SDS011;17169;50.966;11.038;2023-07-13T15:48:28;1.50;;;0.95;;
30380;SDS011;17169;50.966;11.038;2023-07-13T15:51:31;5.20;;;1.25;;
30380;SDS011;17169;50.966;11.038;2023-07-13T15:54:36;6.55;;;1.02;;
30380;SDS011;17169;50.966;11.038;2023-07-13T15:57:40;3.80;;;1.27;;
30380;SDS011;17169;50.966;11.038;2023-07-13T16:00:48;1.73;;;0.73;;
30380;SDS011;17169;50.966;11.038;2023-07-13T16:03:51;2.55;;;1.17;;
30380;SDS011;17169;50.966;11.038;2023-07-13T16:06:54;3.17;;;1.08;;
30380;SDS011;17169;50.966;11.038;2023-07-13T16:09:56;4.47;;;0.82;;
30380;SDS011;17169;50.966;11.038;2023-07-13T16:12:59;2.42;;;0.85;;
30380;SDS011;17169;50.966;11.038;2023-07-13T16:16:03;3.63;;;0.80;;
30380;SDS011;17169;50.966;11.038;2023-07-13T16:19:10;4.13;;;1.15;;
30380;SDS011;17169;50.966;11.038;2023-07-13T16:22:13;4.85;;;0.73;;
30380;SDS011;17169;50.966;11.038;2023-07-13T16:25:18;2.92;;;1.00;;
30380;SDS011;17169;50.966;11.038;2023-07-13T16:28:22;1.98;;;0.90;;
30380;SDS011;17169;50.966;11.038;2023-07-13T16:31:29;2.67;;;0.98;;
30380;SDS011;17169;50.966;11.038;2023-07-13T16:34:34;1.30;;;0.77;;
30380;SDS011;17169;50.966;11.038;2023-07-13T16:37:37;5.50;;;0.60;;
30380;SDS011;17169;50.966;11.038;2023-07-13T16:40:40;2.97;;;1.23;;
30380;SDS011;17169;50.966;11.038;2023-07-13T16:43:43;3.22;;;0.90;;
30380;SDS011;17169;50.966;11.038;2023-07-13T16:46:47;2.08;;;0.75;;
30380;SDS011;17169;50.966;11.038;2023-07-13T16:49:51;4.28;;;1.10;;
30380;SDS011;17169;50.966;11.038;2023-07-13T16:52:58;2.05;;;0.70;;
30380;SDS011;17169;50.966;11.038;2023-07-13T16:56:03;5.85;;;1.52;;
30380;SDS011;17169;50.966;11.038;2023-07-13T16:59:09;4.78;;;0.88;;
30380;SDS011;17169;50.966;11.038;2023-07-13T17:02:29;5.40;;;1.40;;
30380;SDS011;17169;50.966;11.038;2023-07-13T17:05:35;2.95;;;1.00;;
30380;SDS011;17169;50.966;11.038;2023-07-13T17:08:41;4.72;;;0.90;;
30380;SDS011;17169;50.966;11.038;2023-07-13T17:11:43;3.60;;;1.17;;
30380;SDS011;17169;50.966;11.038;2023-07-13T17:14:46;8.65;;;0.95;;
30380;SDS011;17169;50.966;11.038;2023-07-13T17:17:50;1.92;;;1.00;;
30380;SDS011;17169;50.966;11.038;2023-07-13T17:21:04;2.30;;;1.02;;
30380;SDS011;17169;50.966;11.038;2023-07-13T17:24:12;4.28;;;1.65;;
30380;SDS011;17169;50.966;11.038;2023-07-13T17:27:19;3.72;;;1.20;;
30380;SDS011;17169;50.966;11.038;2023-07-13T17:30:22;3.83;;;1.20;;
30380;SDS011;17169;50.966;11.038;2023-07-13T17:33:33;5.18;;;1.38;;
30380;SDS011;17169;50.966;11.038;2023-07-13T17:36:40;2.80;;;1.10;;
30380;SDS011;17169;50.966;11.038;2023-07-13T17:39:42;2.60;;;1.10;;
30380;SDS011;17169;50.966;11.038;2023-07-13T17:42:45;7.88;;;1.30;;
30380;SDS011;17169;50.966;11.038;2023-07-13T17:45:47;3.97;;;0.93;;
30380;SDS011;17169;50.966;11.038;2023-07-13T17:48:52;7.28;;;1.20;;
30380;SDS011;17169;50.966;11.038;2023-07-13T17:51:54;7.43;;;1.00;;
30380;SDS011;17169;50.966;11.038;2023-07-13T17:54:57;3.28;;;0.95;;
30380;SDS011;17169;50.966;11.038;2023-07-13T17:58:03;1.92;;;0.85;;
30380;SDS011;17169;50.966;11.038;2023-07-13T18:01:05;4.18;;;1.08;;
30380;SDS011;17169;50.966;11.038;2023-07-13T18:04:13;3.03;;;1.08;;
30380;SDS011;17169;50.966;11.038;2023-07-13T18:07:23;3.65;;;0.88;;
30380;SDS011;17169;50.966;11.038;2023-07-13T18:10:28;3.00;;;0.75;;
30380;SDS011;17169;50.966;11.038;2023-07-13T18:13:31;3.17;;;1.10;;
30380;SDS011;17169;50.966;11.038;2023-07-13T18:16:40;2.60;;;1.00;;
30380;SDS011;17169;50.966;11.038;2023-07-13T18:19:51;5.95;;;2.78;;
30380;SDS011;17169;50.966;11.038;2023-07-13T18:22:53;4.90;;;1.20;;
30380;SDS011;17169;50.966;11.038;2023-07-13T18:25:56;5.20;;;1.40;;
30380;SDS011;17169;50.966;11.038;2023-07-13T18:28:58;3.90;;;1.17;;
30380;SDS011;17169;50.966;11.038;2023-07-13T18:32:01;3.55;;;1.20;;
30380;SDS011;17169;50.966;11.038;2023-07-13T18:35:10;9.02;;;1.80;;
30380;SDS011;17169;50.966;11.038;2023-07-13T18:38:16;2.88;;;0.95;;
30380;SDS011;17169;50.966;11.038;2023-07-13T18:41:20;5.55;;;1.33;;